createdAt,value
2023-08-11T00:01:59.832Z,90.08
2023-08-11T00:04:26.613Z,88.54
2023-08-11T00:06:54.073Z,88.09
2023-08-11T00:09:20.947Z,87.75
2023-08-11T00:11:48.042Z,86.95
2023-08-11T00:14:14.752Z,88.29
2023-08-11T00:16:41.519Z,88.17
2023-08-11T00:19:08.222Z,89.27
2023-08-11T00:21:35.002Z,89.27
2023-08-11T00:24:01.750Z,89.63
2023-08-11T00:26:28.501Z,91.83
2023-08-11T00:28:55.126Z,91.12
2023-08-11T00:31:22.434Z,92.56
2023-08-11T00:33:49.613Z,92.03
2023-08-11T00:36:16.475Z,93.33
2023-08-11T00:38:43.375Z,91.96
2023-08-11T00:41:10.117Z,92.43
2023-08-11T00:43:37.175Z,92.03
2023-08-11T00:46:13.488Z,91.58
2023-08-11T00:48:43.602Z,91.78
2023-08-11T00:51:11.642Z,92.05
2023-08-11T00:53:38.404Z,92.58
2023-08-11T00:56:05.341Z,92.43
2023-08-11T00:58:32.182Z,92.76
2023-08-11T01:01:00.022Z,92.67
2023-08-11T01:03:27.012Z,91.45
2023-08-11T01:06:09.029Z,91.98
2023-08-11T01:08:56.221Z,91.26
2023-08-11T01:11:28.569Z,92.08
2023-08-11T01:14:07.822Z,91.94
2023-08-11T01:16:34.813Z,91.91
2023-08-11T01:19:01.589Z,92.44
2023-08-11T01:21:28.292Z,92.69
2023-08-11T01:23:55.080Z,92.97
2023-08-11T01:26:21.733Z,92.54
2023-08-11T01:28:48.678Z,91.66
2023-08-11T01:31:15.428Z,90.76
2023-08-11T01:33:42.168Z,91.12
2023-08-11T01:36:09.816Z,91.81
2023-08-11T01:38:36.655Z,92.23
2023-08-11T01:41:03.314Z,91.74
2023-08-11T01:43:30.979Z,90.93
2023-08-11T01:45:57.964Z,90.80
2023-08-11T01:48:24.702Z,91.46
2023-08-11T01:50:51.407Z,91.10
2023-08-11T01:53:18.128Z,90.86
2023-08-11T01:55:45.631Z,91.15
2023-08-11T01:58:12.495Z,91.06
2023-08-11T02:00:39.248Z,92.45
2023-08-11T02:03:06.205Z,91.92
2023-08-11T02:05:32.976Z,92.42
2023-08-11T02:08:01.268Z,93.99
2023-08-11T02:10:28.116Z,95.63
2023-08-11T02:12:54.768Z,97.74
2023-08-11T02:15:21.569Z,97.03
2023-08-11T02:17:48.317Z,96.34
2023-08-11T02:20:22.736Z,96.75
2023-08-11T02:22:50.472Z,93.81
2023-08-11T02:25:17.280Z,92.96
2023-08-11T02:27:45.176Z,92.43
2023-08-11T02:30:12.500Z,91.67
2023-08-11T02:32:40.252Z,91.09
2023-08-11T02:35:07.437Z,92.92
2023-08-11T02:37:34.327Z,94.96
2023-08-11T02:40:01.049Z,96.18
2023-08-11T02:42:27.899Z,94.88
2023-08-11T02:44:54.772Z,92.82
2023-08-11T02:47:21.694Z,90.90
2023-08-11T02:49:49.120Z,90.87
2023-08-11T02:52:16.040Z,90.57
2023-08-11T02:54:42.875Z,89.78
2023-08-11T02:57:09.633Z,90.05
2023-08-11T02:59:36.409Z,90.95
2023-08-11T03:02:03.542Z,89.11
2023-08-11T03:04:30.369Z,91.24
2023-08-11T03:06:57.138Z,91.07
2023-08-11T03:09:23.949Z,91.66
2023-08-11T03:11:50.736Z,93.02
2023-08-11T03:14:18.287Z,92.23
2023-08-11T03:16:45.824Z,93.48
2023-08-11T03:19:12.627Z,94.21
2023-08-11T03:21:39.732Z,93.31
2023-08-11T03:24:07.134Z,91.55
2023-08-11T03:26:34.070Z,90.67
2023-08-11T03:29:00.721Z,90.83
2023-08-11T03:31:27.635Z,89.44
2023-08-11T03:33:54.334Z,90.31
2023-08-11T03:36:21.094Z,90.77
2023-08-11T03:38:47.857Z,90.74
2023-08-11T03:41:14.784Z,93.29
2023-08-11T03:43:41.528Z,94.95
2023-08-11T03:46:08.278Z,93.96
2023-08-11T03:48:34.956Z,92.41
2023-08-11T03:51:02.422Z,92.55
2023-08-11T03:53:29.917Z,92.21
2023-08-11T03:55:56.699Z,91.51
2023-08-11T03:58:24.439Z,94.17
2023-08-11T04:00:51.279Z,93.77
2023-08-11T04:03:18.075Z,92.11
2023-08-11T04:05:45.300Z,92.71
2023-08-11T04:08:12.596Z,91.97
2023-08-11T04:10:39.489Z,93.07
2023-08-11T04:13:06.393Z,93.14
2023-08-11T04:15:33.936Z,95.27
2023-08-11T04:18:00.927Z,93.48
2023-08-11T04:20:30.008Z,94.26
2023-08-11T04:22:57.280Z,92.59
2023-08-11T04:25:25.218Z,93.58
2023-08-11T04:27:52.192Z,92.13
2023-08-11T04:30:19.043Z,90.59
2023-08-11T04:32:46.024Z,91.09
2023-08-11T04:35:12.891Z,91.77
2023-08-11T04:37:40.304Z,93.05
2023-08-11T04:40:10.820Z,93.49
2023-08-11T04:42:38.912Z,92.97
2023-08-11T04:45:05.927Z,93.13
2023-08-11T04:47:32.769Z,92.72
2023-08-11T04:49:59.560Z,92.80
2023-08-11T04:52:26.309Z,91.49
2023-08-11T04:54:53.048Z,92.25
2023-08-11T04:57:19.757Z,91.45
2023-08-11T04:59:47.002Z,91.59
2023-08-11T05:02:16.870Z,92.72
2023-08-11T05:04:43.575Z,91.61
2023-08-11T05:07:10.671Z,91.53
2023-08-11T05:09:37.913Z,90.28
2023-08-11T05:12:05.903Z,92.21
2023-08-11T05:14:33.079Z,91.79
2023-08-11T05:17:02.302Z,90.91
2023-08-11T05:19:29.848Z,91.36
2023-08-11T05:21:56.589Z,89.52
2023-08-11T05:24:23.339Z,88.36
2023-08-11T05:26:50.594Z,88.68
2023-08-11T05:29:17.300Z,87.49
2023-08-11T05:31:44.206Z,87.60
2023-08-11T05:34:11.079Z,87.81
2023-08-11T05:36:38.322Z,88.38
2023-08-11T05:39:05.261Z,86.65
2023-08-11T05:41:32.224Z,85.45
2023-08-11T05:43:59.275Z,84.48
2023-08-11T05:46:26.120Z,85.99
2023-08-11T05:48:52.809Z,83.85
2023-08-11T05:51:19.637Z,84.97
2023-08-11T05:53:48.311Z,86.23
2023-08-11T05:56:15.721Z,87.22
2023-08-11T05:58:42.771Z,86.07
2023-08-11T06:01:09.768Z,84.03
2023-08-11T06:03:36.580Z,84.67
2023-08-11T06:06:05.631Z,84.07
2023-08-11T06:08:32.521Z,82.46
2023-08-11T06:10:59.404Z,82.22
2023-08-11T06:13:26.196Z,83.48
2023-08-11T06:15:53.010Z,81.85
2023-08-11T06:18:20.024Z,76.83
2023-08-11T06:20:48.500Z,77.14
2023-08-11T06:23:15.326Z,75.31
2023-08-11T06:25:43.104Z,74.23
2023-08-11T06:28:09.924Z,74.25
2023-08-11T06:30:36.972Z,73.17
2023-08-11T06:33:04.440Z,72.27
2023-08-11T06:35:31.501Z,71.53
2023-08-11T06:37:58.673Z,70.41
2023-08-11T06:40:25.868Z,68.76
2023-08-11T06:42:52.629Z,69.90
2023-08-11T06:45:19.511Z,71.42
2023-08-11T06:47:46.361Z,71.25
2023-08-11T06:50:13.277Z,70.79
2023-08-11T06:52:40.046Z,67.62
2023-08-11T06:55:06.969Z,69.21
2023-08-11T06:57:34.246Z,72.31
2023-08-11T07:00:01.045Z,69.74
2023-08-11T07:02:27.936Z,67.77
2023-08-11T07:04:54.661Z,67.49
2023-08-11T07:07:21.554Z,66.74
2023-08-11T07:09:48.248Z,66.30
2023-08-11T07:12:15.005Z,66.74
2023-08-11T07:14:43.816Z,69.58
2023-08-11T07:17:11.054Z,69.36
2023-08-11T07:19:38.144Z,71.92
2023-08-11T07:22:05.603Z,71.53
2023-08-11T07:24:32.289Z,69.07
2023-08-11T07:26:58.904Z,68.54
2023-08-11T07:29:25.685Z,70.00
2023-08-11T07:31:52.454Z,68.75
2023-08-11T07:34:19.177Z,65.26
2023-08-11T07:36:46.014Z,62.63
2023-08-11T07:39:22.708Z,63.71
2023-08-11T07:41:51.622Z,63.67
2023-08-11T07:44:18.457Z,62.07
2023-08-11T07:46:45.327Z,60.75
2023-08-11T07:49:12.101Z,62.62
2023-08-11T07:51:40.866Z,61.52
2023-08-11T07:54:07.894Z,61.05
2023-08-11T07:56:35.190Z,60.68
2023-08-11T07:59:02.031Z,60.31
2023-08-11T08:01:28.950Z,61.33
2023-08-11T08:03:56.696Z,60.64
2023-08-11T08:06:23.537Z,57.79
2023-08-11T08:08:50.300Z,58.44
2023-08-11T08:11:17.012Z,60.75
2023-08-11T08:13:43.729Z,59.14
2023-08-11T08:16:10.541Z,57.49
2023-08-11T08:18:37.334Z,57.56
2023-08-11T08:21:06.232Z,58.51
2023-08-11T08:23:32.984Z,59.32
2023-08-11T08:25:59.737Z,58.39
2023-08-11T08:28:27.121Z,57.71
2023-08-11T08:30:53.828Z,55.35
2023-08-11T08:33:20.697Z,53.46
2023-08-11T08:35:47.519Z,53.92
2023-08-11T08:38:14.257Z,52.23
2023-08-11T08:40:41.122Z,54.11
2023-08-11T08:43:08.076Z,54.17
2023-08-11T08:45:34.719Z,55.49
2023-08-11T08:48:02.601Z,56.26
2023-08-11T08:50:29.498Z,53.35
2023-08-11T08:52:56.237Z,52.27
2023-08-11T08:55:22.945Z,51.87
2023-08-11T08:57:49.783Z,50.58
2023-08-11T09:00:18.603Z,52.92
2023-08-11T09:02:45.467Z,50.01
2023-08-11T09:05:13.405Z,47.26
2023-08-11T09:07:40.426Z,50.47
2023-08-11T09:10:08.965Z,53.13
2023-08-11T09:12:35.823Z,53.76
2023-08-11T09:15:29.928Z,52.56
2023-08-11T09:17:56.794Z,53.75
2023-08-11T09:20:26.501Z,50.57
2023-08-11T09:22:53.296Z,48.19
2023-08-11T09:25:20.337Z,47.88
2023-08-11T09:27:52.088Z,48.43
2023-08-11T09:30:18.940Z,48.96
2023-08-11T09:32:49.686Z,49.35
2023-08-11T09:35:17.045Z,48.77
2023-08-11T09:37:45.263Z,48.99
2023-08-11T09:40:12.670Z,50.67
2023-08-11T09:42:39.592Z,51.17
2023-08-11T09:45:06.973Z,49.69
2023-08-11T09:47:33.804Z,50.63
2023-08-11T09:50:00.545Z,52.42
2023-08-11T09:52:28.089Z,53.81
2023-08-11T09:54:55.121Z,51.75
2023-08-11T09:57:22.343Z,46.95
2023-08-11T09:59:49.387Z,48.17
2023-08-11T10:02:18.306Z,44.78
2023-08-11T10:04:47.579Z,46.68
2023-08-11T10:07:14.713Z,47.70
2023-08-11T10:09:42.945Z,43.71
2023-08-11T10:12:09.972Z,46.29
2023-08-11T10:14:37.907Z,45.54
2023-08-11T10:17:04.881Z,48.69
2023-08-11T10:19:31.719Z,48.50
2023-08-11T10:22:00.419Z,45.77
2023-08-11T10:24:27.497Z,46.64
2023-08-11T10:26:54.222Z,44.68
2023-08-11T10:29:20.984Z,46.75
2023-08-11T10:31:59.444Z,44.55
2023-08-11T10:34:26.693Z,42.52
2023-08-11T10:37:00.140Z,42.98
2023-08-11T10:39:27.509Z,42.41
2023-08-11T10:41:56.297Z,44.22
2023-08-11T10:44:28.645Z,43.89
2023-08-11T10:46:55.401Z,41.89
2023-08-11T10:49:33.908Z,43.93
2023-08-11T10:52:01.771Z,43.44
2023-08-11T10:54:28.484Z,42.91
2023-08-11T10:56:55.421Z,41.47
2023-08-11T10:59:22.191Z,41.64
2023-08-11T11:01:53.016Z,42.19
2023-08-11T11:04:24.789Z,44.17
2023-08-11T11:06:54.969Z,42.60
2023-08-11T11:09:23.020Z,42.78
2023-08-11T11:11:53.026Z,42.31
2023-08-11T11:14:19.963Z,42.39
2023-08-11T11:16:47.232Z,42.20
2023-08-11T11:19:14.198Z,41.41
2023-08-11T11:21:43.653Z,40.48
2023-08-11T11:24:11.235Z,38.79
2023-08-11T11:26:38.420Z,41.34
2023-08-11T11:29:06.612Z,43.44
2023-08-11T11:31:35.335Z,40.16
2023-08-11T11:34:05.483Z,41.38
2023-08-11T11:36:32.568Z,42.17
2023-08-11T11:39:00.933Z,41.96
2023-08-11T11:41:29.761Z,42.12
2023-08-11T11:43:56.569Z,39.30
2023-08-11T11:46:23.712Z,37.32
2023-08-11T11:48:54.419Z,35.89
2023-08-11T11:51:25.828Z,36.66
2023-08-11T11:53:55.225Z,40.15
2023-08-11T11:56:22.048Z,39.98
2023-08-11T11:58:50.196Z,39.45
2023-08-11T12:01:21.680Z,40.86
2023-08-11T12:03:49.960Z,39.26
2023-08-11T12:06:19.309Z,41.18
2023-08-11T12:08:46.237Z,40.00
2023-08-11T12:11:13.984Z,40.37
2023-08-11T12:13:41.387Z,41.01
2023-08-11T12:16:09.196Z,40.62
2023-08-11T12:18:36.988Z,38.61
2023-08-11T12:21:04.666Z,39.41
2023-08-11T12:23:32.321Z,38.38
2023-08-11T12:25:59.084Z,36.00
2023-08-11T12:28:27.335Z,37.69
2023-08-11T12:30:54.651Z,37.12
2023-08-11T12:33:21.588Z,39.88
2023-08-11T12:35:49.143Z,40.37
2023-08-11T12:38:16.756Z,37.30
2023-08-11T12:40:44.092Z,35.27
2023-08-11T12:43:13.720Z,35.78
2023-08-11T12:45:41.406Z,37.92
2023-08-11T12:48:09.213Z,34.82
2023-08-11T12:50:39.158Z,34.31
2023-08-11T12:53:06.568Z,34.82
2023-08-11T12:55:34.091Z,35.70
2023-08-11T12:58:04.176Z,38.62
2023-08-11T13:00:30.983Z,34.77
2023-08-11T13:02:57.938Z,37.15
2023-08-11T13:05:25.435Z,38.21
2023-08-11T13:07:52.238Z,38.62
2023-08-11T13:10:20.489Z,36.74
2023-08-11T13:12:47.344Z,37.46
2023-08-11T13:15:14.046Z,38.58
2023-08-11T13:17:40.964Z,37.50
2023-08-11T13:20:10.828Z,37.04
2023-08-11T13:22:38.083Z,34.92
2023-08-11T13:25:05.745Z,35.40
2023-08-11T13:27:32.479Z,35.46
2023-08-11T13:29:59.392Z,35.64
2023-08-11T13:32:26.146Z,36.38
2023-08-11T13:34:52.857Z,35.22
2023-08-11T13:37:19.574Z,36.63
2023-08-11T13:39:46.336Z,39.64
2023-08-11T13:42:13.089Z,36.33
2023-08-11T13:44:42.336Z,38.78
2023-08-11T13:47:09.003Z,39.39
2023-08-11T13:49:35.801Z,39.09
2023-08-11T13:52:02.572Z,38.30
2023-08-11T13:54:30.721Z,38.64
2023-08-11T13:56:57.367Z,38.64
2023-08-11T13:59:24.080Z,39.04
2023-08-11T14:01:50.806Z,39.56
2023-08-11T14:04:17.998Z,37.60
2023-08-11T14:06:44.679Z,38.35
2023-08-11T14:09:12.113Z,37.44
2023-08-11T14:11:38.891Z,37.90
2023-08-11T14:14:05.751Z,39.84
2023-08-11T14:16:32.497Z,40.79
2023-08-11T14:18:59.180Z,42.30
2023-08-11T14:21:25.918Z,43.15
2023-08-11T14:23:52.724Z,44.35
2023-08-11T14:26:19.420Z,44.15
2023-08-11T14:28:46.104Z,45.02
2023-08-11T14:31:12.853Z,44.98
2023-08-11T14:33:42.773Z,45.23
2023-08-11T14:38:39.279Z,44.54
2023-08-11T14:41:07.623Z,44.77
2023-08-11T14:43:34.592Z,46.75
2023-08-11T14:46:01.360Z,46.78
2023-08-11T14:48:28.308Z,46.81
2023-08-11T14:50:55.293Z,45.96
2023-08-11T14:53:24.252Z,46.42
2023-08-11T14:55:51.050Z,44.98
2023-08-11T14:58:18.823Z,46.30
2023-08-11T15:00:45.673Z,45.40
2023-08-11T15:03:13.565Z,45.23
2023-08-11T15:05:41.282Z,45.32
2023-08-11T15:08:08.504Z,46.66
2023-08-11T15:10:35.284Z,45.59
2023-08-11T15:13:05.327Z,45.12
2023-08-11T15:15:32.991Z,45.83
2023-08-11T15:17:59.846Z,46.61
2023-08-11T15:20:26.886Z,45.41
2023-08-11T15:22:53.640Z,45.93
2023-08-11T15:25:20.515Z,47.01
2023-08-11T15:27:47.245Z,46.70
2023-08-11T15:30:15.288Z,44.84
2023-08-11T15:32:42.225Z,46.30
2023-08-11T15:35:12.307Z,46.02
2023-08-11T15:37:39.085Z,46.41
2023-08-11T15:40:06.632Z,46.73
2023-08-11T15:42:33.323Z,46.83
2023-08-11T15:45:00.030Z,47.00
2023-08-11T15:47:26.790Z,48.22
2023-08-11T15:49:53.584Z,49.15
2023-08-11T15:52:20.385Z,50.21
2023-08-11T15:54:47.103Z,49.53
2023-08-11T15:57:13.806Z,50.25
2023-08-11T15:59:40.587Z,51.21
2023-08-11T16:02:10.430Z,51.15
2023-08-11T16:04:37.950Z,50.61
2023-08-11T16:07:04.925Z,50.49
2023-08-11T16:09:31.655Z,50.86
2023-08-11T16:11:58.391Z,51.11
2023-08-11T16:14:28.088Z,51.22
2023-08-11T16:16:55.393Z,51.25
2023-08-11T16:19:22.196Z,51.91
2023-08-11T16:21:48.936Z,51.59
2023-08-11T16:24:15.834Z,51.40
2023-08-11T16:26:42.621Z,51.92
2023-08-11T16:29:09.345Z,51.34
2023-08-11T16:31:36.087Z,51.66
2023-08-11T16:34:04.636Z,52.21
2023-08-11T16:36:31.460Z,52.58
2023-08-11T16:38:58.174Z,52.39
2023-08-11T16:41:24.914Z,52.15
2023-08-11T16:43:53.066Z,52.78
2023-08-11T16:46:22.265Z,53.17
2023-08-11T16:48:50.389Z,53.78
2023-08-11T16:51:17.139Z,54.23
2023-08-11T16:53:43.997Z,54.05
2023-08-11T16:56:10.707Z,54.03
2023-08-11T16:58:37.482Z,54.57
2023-08-11T17:01:04.186Z,55.25
2023-08-11T17:03:31.204Z,55.08
2023-08-11T17:05:58.426Z,57.28
2023-08-11T17:08:25.094Z,56.36
2023-08-11T17:10:51.821Z,55.54
2023-08-11T17:13:18.538Z,55.43
2023-08-11T17:15:45.203Z,57.54
2023-08-11T17:18:11.994Z,59.00
2023-08-11T17:20:38.740Z,60.95
2023-08-11T17:23:05.695Z,63.23
2023-08-11T17:25:32.360Z,62.55
2023-08-11T17:27:59.153Z,63.46
2023-08-11T17:30:26.070Z,64.49
2023-08-11T17:32:52.711Z,65.16
2023-08-11T17:35:19.431Z,65.04
2023-08-11T17:37:47.613Z,67.50
2023-08-11T17:40:14.976Z,65.77
2023-08-11T17:42:42.145Z,64.87
2023-08-11T17:45:09.425Z,63.70
2023-08-11T17:47:36.201Z,62.86
2023-08-11T17:50:03.689Z,62.36
2023-08-11T17:52:30.458Z,63.32
2023-08-11T17:54:57.163Z,64.18
2023-08-11T17:57:23.912Z,64.49
2023-08-11T17:59:50.949Z,64.54
2023-08-11T18:02:17.938Z,65.14
2023-08-11T18:04:45.258Z,65.85
2023-08-11T18:07:12.027Z,66.54
2023-08-11T18:09:41.927Z,66.80
2023-08-11T18:12:11.452Z,67.41
2023-08-11T18:14:40.791Z,67.20
2023-08-11T18:17:07.612Z,67.21
2023-08-11T18:19:34.346Z,66.62
2023-08-11T18:22:01.037Z,67.80
2023-08-11T18:24:27.759Z,67.67
2023-08-11T18:26:54.446Z,66.06
2023-08-11T18:29:21.349Z,66.03
2023-08-11T18:31:48.210Z,66.10
2023-08-11T18:34:14.896Z,66.98
2023-08-11T18:36:41.717Z,67.33
2023-08-11T18:39:09.562Z,66.95
2023-08-11T18:41:36.368Z,68.41
2023-08-11T18:44:03.286Z,68.61
2023-08-11T18:46:31.621Z,67.59
2023-08-11T18:48:58.704Z,68.79
2023-08-11T18:51:25.370Z,69.37
2023-08-11T18:53:52.168Z,69.62
2023-08-11T18:56:18.894Z,69.40
2023-08-11T18:58:45.993Z,69.56
2023-08-11T19:01:12.884Z,69.79
2023-08-11T19:03:39.816Z,70.71
2023-08-11T19:06:06.766Z,73.57
2023-08-11T19:08:34.897Z,72.15
2023-08-11T19:11:01.546Z,72.00
2023-08-11T19:13:28.367Z,70.66
2023-08-11T19:15:55.193Z,72.09
2023-08-11T19:18:21.968Z,72.70
2023-08-11T19:20:48.733Z,73.23
2023-08-11T19:23:16.486Z,73.46
2023-08-11T19:25:43.225Z,73.06
2023-08-11T19:28:12.072Z,72.96
2023-08-11T19:30:38.993Z,71.99
2023-08-11T19:33:05.771Z,71.11
2023-08-11T19:35:32.513Z,71.70
2023-08-11T19:37:59.268Z,70.89
2023-08-11T19:40:26.049Z,71.71
2023-08-11T19:42:53.193Z,71.16
2023-08-11T19:45:19.878Z,71.47
2023-08-11T19:47:46.622Z,71.90
2023-08-11T19:50:13.388Z,72.79
2023-08-11T19:52:40.163Z,73.87
2023-08-11T19:55:07.631Z,75.38
2023-08-11T19:57:34.399Z,75.94
2023-08-11T20:00:01.837Z,77.48
2023-08-11T20:02:28.648Z,75.01
2023-08-11T20:04:55.287Z,74.23
2023-08-11T20:07:22.081Z,74.17
2023-08-11T20:09:48.820Z,74.70
2023-08-11T20:12:15.527Z,74.13
2023-08-11T20:14:42.316Z,72.81
2023-08-11T20:17:09.285Z,74.07
2023-08-11T20:19:36.345Z,75.00
2023-08-11T20:22:03.051Z,75.43
2023-08-11T20:24:29.898Z,74.31
2023-08-11T20:26:59.853Z,73.78
2023-08-11T20:29:29.546Z,73.43
2023-08-11T20:31:57.141Z,73.59
2023-08-11T20:34:24.005Z,74.17
2023-08-11T20:36:51.301Z,72.98
2023-08-11T20:39:18.012Z,72.94
2023-08-11T20:41:47.521Z,73.70
2023-08-11T20:44:14.239Z,74.04
2023-08-11T20:46:40.936Z,72.84
2023-08-11T20:49:07.564Z,74.05
2023-08-11T20:51:34.291Z,73.79
2023-08-11T20:54:01.041Z,73.97
2023-08-11T20:56:27.762Z,74.27
2023-08-11T20:58:54.448Z,75.61
2023-08-11T21:01:21.197Z,75.74
2023-08-11T21:03:48.746Z,76.46
2023-08-11T21:06:17.498Z,76.25
2023-08-11T21:08:48.035Z,77.71
2023-08-11T21:11:15.210Z,77.45
2023-08-11T21:13:41.952Z,77.57
2023-08-11T21:16:08.761Z,78.05
2023-08-11T21:18:36.295Z,79.08
2023-08-11T21:21:02.913Z,79.55
2023-08-11T21:23:29.621Z,81.99
2023-08-11T21:25:56.513Z,81.50
2023-08-11T21:28:23.296Z,83.24
2023-08-11T21:31:03.944Z,84.91
2023-08-11T21:33:34.773Z,82.91
2023-08-11T21:36:01.527Z,82.53
2023-08-11T21:38:28.204Z,83.93
2023-08-11T21:40:54.875Z,84.52
2023-08-11T21:43:21.683Z,84.26
2023-08-11T21:45:48.423Z,81.61
2023-08-11T21:48:15.118Z,81.96
2023-08-11T21:50:41.881Z,83.00
2023-08-11T21:53:22.245Z,84.25
2023-08-11T21:55:50.719Z,83.20
2023-08-11T21:58:17.502Z,83.47
2023-08-11T22:00:45.108Z,80.45
2023-08-11T22:03:12.064Z,82.31
2023-08-11T22:05:38.991Z,83.36
2023-08-11T22:08:05.866Z,84.78
2023-08-11T22:10:32.618Z,85.27
2023-08-11T22:12:59.455Z,84.91
2023-08-11T22:15:26.240Z,84.74
2023-08-11T22:17:54.818Z,84.56
2023-08-11T22:20:22.220Z,84.96
2023-08-11T22:22:48.894Z,83.50
2023-08-11T22:25:16.145Z,84.08
2023-08-11T22:27:43.340Z,84.42
2023-08-11T22:30:10.388Z,83.22
2023-08-11T22:32:37.151Z,82.58
2023-08-11T22:35:04.311Z,82.88
2023-08-11T22:37:31.069Z,83.18
2023-08-11T22:39:58.191Z,82.51
2023-08-11T22:42:26.910Z,84.76
2023-08-11T22:44:55.196Z,84.59
2023-08-11T22:47:23.090Z,83.42
2023-08-11T22:49:49.941Z,83.53
2023-08-11T22:52:17.197Z,83.02
2023-08-11T22:54:43.963Z,82.94
2023-08-11T22:57:11.107Z,82.89
2023-08-11T22:59:38.942Z,81.03
2023-08-11T23:02:05.794Z,81.10
2023-08-11T23:04:32.660Z,82.05
2023-08-11T23:06:59.353Z,81.47
2023-08-11T23:09:26.590Z,81.25
2023-08-11T23:11:53.417Z,80.32
2023-08-11T23:14:20.129Z,80.40
2023-08-11T23:16:46.913Z,80.32
2023-08-11T23:19:13.719Z,79.88
2023-08-11T23:21:40.393Z,80.13
2023-08-11T23:24:07.683Z,80.48
2023-08-11T23:26:34.565Z,81.54
2023-08-11T23:29:01.537Z,82.03
2023-08-11T23:31:28.377Z,80.49
2023-08-11T23:33:55.135Z,79.53
2023-08-11T23:36:22.069Z,81.18
2023-08-11T23:38:49.102Z,81.27
2023-08-11T23:41:15.846Z,81.68
2023-08-11T23:43:42.602Z,84.19
2023-08-11T23:46:14.941Z,84.02
2023-08-11T23:48:44.960Z,85.48
2023-08-11T23:51:11.734Z,87.03
2023-08-11T23:53:38.641Z,85.77
2023-08-11T23:56:05.652Z,84.74
2023-08-11T23:58:32.539Z,83.64
